Time;durP1;ratioP1;P1;durP2;ratioP2;P2;SDS_P1;SDS_P2;PMS_P1;PMS_P2;Temp;Humidity;BMP_temperature;BMP_pressure;BME280_temperature;BME280_humidity;BME280_pressure;Samples;Min_cycle;Max_cycle;Signal;HPM_P1;HPM_P2
2024/04/20 00:00:24;;;;;;;4.97;4.45;;;;;;;5.26;99.49;95620.03;7395985;19;19999;-58
2024/04/20 00:02:53;;;;;;;6.85;4.07;;;;;;;5.33;98.33;95625.88;7397769;19;20371;-58
2024/04/20 00:05:19;;;;;;;5.28;4.55;;;;;;;5.44;96.17;95610.81;7396510;19;20027;-59
2024/04/20 00:07:48;;;;;;;5.40;4.35;;;;;;;5.48;97.04;95614.13;7397709;19;19999;-56
2024/04/20 00:10:18;;;;;;;7.93;4.50;;;;;;;5.46;97.97;95594.34;7397616;19;20003;-58
2024/04/20 00:12:44;;;;;;;5.10;4.65;;;;;;;5.44;96.46;95596.97;7396374;19;20335;-57
2024/04/20 00:15:09;;;;;;;5.28;4.18;;;;;;;5.20;99.59;95598.63;7397297;19;20005;-55
2024/04/20 00:17:36;;;;;;;7.13;4.22;;;;;;;5.28;99.46;95587.13;7397187;19;19998;-55
2024/04/20 00:20:03;;;;;;;4.43;4.00;;;;;;;5.28;99.16;95581.94;7396079;19;20366;-56
2024/04/20 00:22:28;;;;;;;6.50;4.40;;;;;;;5.14;100.00;95582.38;7397173;19;19998;-59
2024/04/20 00:24:54;;;;;;;4.88;4.38;;;;;;;5.35;96.47;95568.75;7397081;19;20005;-57
2024/04/20 00:27:19;;;;;;;4.70;4.22;;;;;;;5.42;95.39;95565.91;7396901;19;20006;-60
2024/04/20 00:29:45;;;;;;;4.72;4.30;;;;;;;5.46;97.40;95558.88;7397296;19;20010;-58
2024/04/20 00:32:11;;;;;;;4.70;4.30;;;;;;;5.30;100.00;95561.97;7396411;19;20476;-58
2024/04/20 00:34:39;;;;;;;6.13;4.70;;;;;;;5.41;97.09;95553.84;7396802;19;19998;-60
2024/04/20 00:37:06;;;;;;;5.15;4.65;;;;;;;5.31;97.85;95542.94;7396610;19;20012;-61
2024/04/20 00:39:32;;;;;;;5.30;4.70;;;;;;;5.34;98.50;95544.56;7395574;19;20006;-56
2024/04/20 00:41:58;;;;;;;7.00;4.43;;;;;;;5.24;99.85;95541.41;7396848;19;20002;-60
2024/04/20 00:44:23;;;;;;;5.60;4.55;;;;;;;5.12;100.00;95540.06;7396363;19;20488;-55
2024/04/20 00:46:51;;;;;;;5.30;4.53;;;;;;;5.25;100.00;95527.56;7396406;19;19994;-61
2024/04/20 00:49:17;;;;;;;5.93;4.40;;;;;;;5.24;99.92;95514.66;7396315;19;20023;-61
2024/04/20 00:51:44;;;;;;;5.03;4.50;;;;;;;5.26;99.22;95495.56;7396477;19;19991;-53
2024/04/20 00:54:13;;;;;;;4.72;4.25;;;;;;;5.45;96.94;95494.94;7396120;19;19999;-60
2024/04/20 00:56:39;;;;;;;4.80;4.38;;;;;;;5.43;97.58;95491.53;7396442;19;20006;-59
2024/04/20 00:59:06;;;;;;;4.95;4.18;;;;;;;5.17;100.00;95520.03;7395725;19;20394;-58
2024/04/20 01:01:31;;;;;;;5.65;3.85;;;;;;;5.22;100.00;95553.59;7395873;19;20453;-57
2024/04/20 01:03:57;;;;;;;3.90;3.50;;;;;;;5.11;100.00;95572.09;7396114;19;20002;-62
2024/04/20 01:06:23;;;;;;;4.13;3.70;;;;;;;5.17;100.00;95558.94;7394295;19;20074;-57
2024/04/20 01:08:49;;;;;;;7.88;4.00;;;;;;;5.24;100.00;95548.38;7395910;19;20023;-57
2024/04/20 01:11:16;;;;;;;4.07;3.78;;;;;;;5.20;100.00;95537.25;7395519;19;20007;-53
2024/04/20 01:13:57;;;;;;;4.60;4.20;;;;;;;4.98;100.00;95539.69;7395523;19;20468;-59
2024/04/20 01:16:25;;;;;;;4.40;3.90;;;;;;;4.87;100.00;95546.03;7395911;19;20066;-55
2024/04/20 01:18:51;;;;;;;4.45;4.05;;;;;;;4.92;100.00;95545.91;7395017;19;20009;-59
2024/04/20 01:21:18;;;;;;;4.10;3.80;;;;;;;5.08;100.00;95545.44;7395229;19;19999;-58
2024/04/20 01:23:53;;;;;;;4.85;4.30;;;;;;;4.92;100.00;95545.91;7395212;19;20002;-59
2024/04/20 01:26:19;;;;;;;6.07;5.05;;;;;;;4.90;100.00;95543.34;7395198;19;19991;-61
2024/04/20 01:28:45;;;;;;;6.70;4.80;;;;;;;4.96;100.00;95541.50;7393933;19;20003;-54
2024/04/20 01:31:10;;;;;;;5.43;4.63;;;;;;;5.03;100.00;95537.81;7394944;19;20019;-58
2024/04/20 01:33:36;;;;;;;7.20;5.20;;;;;;;4.92;100.00;95539.00;7395303;19;20006;-58
2024/04/20 01:36:02;;;;;;;6.22;4.57;;;;;;;4.79;100.00;95532.50;7394904;19;20003;-60
2024/04/20 01:38:27;;;;;;;9.23;5.47;;;;;;;4.71;100.00;95537.03;7394550;19;20457;-55
2024/04/20 01:40:53;;;;;;;11.55;5.15;;;;;;;4.71;100.00;95537.91;7394847;19;20012;-61
2024/04/20 01:43:19;;;;;;;5.90;4.50;;;;;;;4.79;100.00;95532.50;7394829;19;20003;-55
2024/04/20 01:45:44;;;;;;;6.47;4.20;;;;;;;4.65;100.00;95538.09;7402423;19;19995;-58
2024/04/20 01:48:10;;;;;;;5.53;4.38;;;;;;;4.64;100.00;95546.75;7402250;19;20002;-62
2024/04/20 01:50:36;;;;;;;5.05;3.78;;;;;;;4.41;100.00;95531.03;7402513;19;20357;-60
2024/04/20 01:53:02;;;;;;;4.72;3.20;;;;;;;4.65;100.00;95531.19;7402512;19;20006;-60
2024/04/20 01:55:27;;;;;;;4.40;3.67;;;;;;;4.75;100.00;95536.91;7402090;19;20007;-62
2024/04/20 01:57:53;;;;;;;4.97;4.28;;;;;;;4.67;100.00;95538.91;7401980;19;20007;-53
2024/04/20 02:00:18;;;;;;;4.47;3.83;;;;;;;4.72;100.00;95555.13;7399570;19;20002;-60
2024/04/20 02:02:44;;;;;;;4.38;3.97;;;;;;;5.09;100.00;95565.25;7401642;19;20007;-62
2024/04/20 02:05:10;;;;;;;4.15;3.75;;;;;;;4.84;100.00;95569.47;7400278;19;20019;-57
2024/04/20 02:07:36;;;;;;;4.57;4.10;;;;;;;4.68;100.00;95572.53;7402024;19;20027;-59
2024/04/20 02:10:01;;;;;;;4.90;4.18;;;;;;;4.93;100.00;95566.59;7401526;19;19994;-59
2024/04/20 02:12:27;;;;;;;4.18;3.88;;;;;;;4.54;100.00;95566.91;7401498;19;20011;-59
2024/04/20 02:14:52;;;;;;;5.15;4.10;;;;;;;4.45;100.00;95578.38;7401328;19;20021;-53
2024/04/20 02:17:18;;;;;;;4.22;3.83;;;;;;;4.79;100.00;95577.38;7401298;19;19999;-59
2024/04/20 02:19:43;;;;;;;4.35;3.72;;;;;;;5.21;100.00;95580.41;7399699;19;20009;-60
2024/04/20 02:22:09;;;;;;;4.32;3.92;;;;;;;4.97;100.00;95580.28;7401491;19;20020;-61
2024/04/20 02:24:35;;;;;;;6.60;4.15;;;;;;;4.79;100.00;95587.75;7401084;19;20394;-56
2024/04/20 02:27:01;;;;;;;4.78;3.97;;;;;;;4.82;100.00;95596.31;7401104;19;20499;-58
2024/04/20 02:29:26;;;;;;;5.90;3.88;;;;;;;4.98;100.00;95594.09;7401146;19;19991;-60
2024/04/20 02:31:52;;;;;;;4.35;3.95;;;;;;;5.06;100.00;95602.50;7400834;19;20007;-55
2024/04/20 02:34:17;;;;;;;3.97;3.58;;;;;;;5.04;100.00;95599.09;7401122;19;20070;-56
2024/04/20 02:36:43;;;;;;;4.43;4.03;;;;;;;5.08;100.00;95603.28;7401009;19;20002;-59
2024/04/20 02:39:09;;;;;;;6.75;4.28;;;;;;;5.15;100.00;95591.00;7400045;19;20007;-55
2024/04/20 02:41:34;;;;;;;4.32;3.92;;;;;;;5.15;100.00;95594.41;7400483;19;20450;-58
2024/04/20 02:44:00;;;;;;;6.32;4.20;;;;;;;5.09;100.00;95588.59;7400452;19;20021;-61
2024/04/20 02:46:27;;;;;;;4.35;3.95;;;;;;;5.10;100.00;95582.50;7400308;19;20019;-57
2024/04/20 02:48:52;;;;;;;5.15;4.20;;;;;;;5.02;100.00;95580.16;7400201;19;20372;-56
2024/04/20 02:51:18;;;;;;;4.45;4.05;;;;;;;5.02;100.00;95586.19;7400212;19;20007;-59
2024/04/20 02:53:43;;;;;;;4.32;3.75;;;;;;;4.89;100.00;95584.88;7400022;19;20007;-59
2024/04/20 02:56:09;;;;;;;6.40;4.25;;;;;;;4.82;100.00;95586.81;7397409;19;19998;-60
2024/04/20 02:58:34;;;;;;;3.97;3.60;;;;;;;4.85;100.00;95589.28;7399806;19;20485;-57
2024/04/20 03:01:01;;;;;;;4.05;3.75;;;;;;;4.88;100.00;95585.78;7399861;19;20461;-61
2024/04/20 03:03:28;;;;;;;4.50;4.10;;;;;;;4.94;100.00;95580.41;7399764;19;20027;-57
2024/04/20 03:05:54;;;;;;;4.13;3.80;;;;;;;4.98;100.00;95578.56;7397643;19;20009;-60
2024/04/20 03:08:19;;;;;;;6.50;3.67;;;;;;;4.97;100.00;95574.28;7399636;19;20010;-56
2024/04/20 03:10:45;;;;;;;4.03;3.63;;;;;;;5.04;100.00;95574.03;7399963;19;20082;-62
2024/04/20 03:13:12;;;;;;;4.18;3.88;;;;;;;5.09;100.00;95562.66;7399487;19;19999;-57
2024/04/20 03:15:39;;;;;;;5.00;3.10;;;;;;;5.21;100.00;95557.06;7399440;19;20016;-59
2024/04/20 03:18:05;;;;;;;4.20;3.78;;;;;;;5.17;100.00;95563.25;7399461;19;20009;-53
2024/04/20 03:20:31;;;;;;;3.80;3.50;;;;;;;5.11;100.00;95569.50;7397528;19;20006;-56
2024/04/20 03:22:56;;;;;;;3.85;3.55;;;;;;;5.12;100.00;95570.34;7399185;19;20461;-61
2024/04/20 03:25:22;;;;;;;3.60;3.25;;;;;;;5.22;100.00;95574.34;7399396;19;20022;-56
2024/04/20 03:27:48;;;;;;;5.15;3.63;;;;;;;5.33;100.00;95570.56;7398973;19;20024;-59
2024/04/20 03:30:13;;;;;;;6.78;3.40;;;;;;;5.30;100.00;95568.91;7398947;19;20037;-56
2024/04/20 03:32:39;;;;;;;3.92;3.40;;;;;;;5.24;100.00;95566.53;7399167;19;20334;-59
2024/04/20 03:35:05;;;;;;;3.80;3.50;;;;;;;5.10;100.00;95573.00;7398831;19;20391;-59
2024/04/20 03:37:30;;;;;;;4.38;3.55;;;;;;;5.11;100.00;95573.81;7398610;19;20062;-60
2024/04/20 03:39:56;;;;;;;7.30;3.47;;;;;;;5.12;100.00;95578.13;7397095;19;20012;-59
2024/04/20 03:42:23;;;;;;;4.88;4.03;;;;;;;5.18;100.00;95580.53;7398853;19;19998;-60
2024/04/20 03:44:49;;;;;;;4.80;3.80;;;;;;;5.19;100.00;95571.84;7398347;19;19995;-59
2024/04/20 03:47:15;;;;;;;8.57;3.42;;;;;;;5.34;100.00;95572.25;7398362;19;19995;-58
2024/04/20 03:49:41;;;;;;;5.80;3.45;;;;;;;5.36;100.00;95562.69;7398633;19;20067;-63
2024/04/20 03:52:06;;;;;;;3.83;3.42;;;;;;;5.41;100.00;95555.56;7398664;19;20355;-62
2024/04/20 03:54:32;;;;;;;6.13;3.67;;;;;;;5.27;100.00;95554.28;7398402;19;20012;-57
2024/04/20 03:56:58;;;;;;;5.25;3.47;;;;;;;5.19;100.00;95561.47;7398084;19;19999;-58
2024/04/20 03:59:23;;;;;;;6.15;3.80;;;;;;;5.04;100.00;95565.41;7397147;19;19995;-56
2024/04/20 04:01:49;;;;;;;4.65;3.75;;;;;;;5.11;100.00;95566.03;7398209;19;20003;-58
2024/04/20 04:04:14;;;;;;;3.65;3.35;;;;;;;5.21;100.00;95561.44;7397686;19;20490;-57
2024/04/20 04:06:40;;;;;;;4.95;3.10;;;;;;;5.29;100.00;95573.25;7396699;19;20007;-56
2024/04/20 04:09:05;;;;;;;7.95;3.13;;;;;;;5.22;100.00;95571.75;7397627;19;19991;-58
2024/04/20 04:11:31;;;;;;;4.20;3.30;;;;;;;5.05;100.00;95567.94;7397617;19;20014;-57
2024/04/20 04:13:56;;;;;;;5.35;3.42;;;;;;;5.21;100.00;95566.63;7397425;19;20016;-56
2024/04/20 04:16:22;;;;;;;11.07;3.20;;;;;;;5.42;100.00;95563.31;7397255;19;19999;-59
2024/04/20 04:18:47;;;;;;;5.90;2.92;;;;;;;5.42;100.00;95558.13;7397000;19;20009;-56
2024/04/20 04:21:13;;;;;;;3.10;2.90;;;;;;;5.52;100.00;95555.22;7397251;19;20003;-53
2024/04/20 04:23:39;;;;;;;6.65;3.50;;;;;;;5.53;100.00;95560.38;7397163;19;19998;-56
2024/04/20 04:26:09;;;;;;;7.10;3.30;;;;;;;5.53;100.00;95555.19;7397015;19;20013;-59
2024/04/20 04:28:35;;;;;;;3.78;3.13;;;;;;;5.59;100.00;95555.84;7396956;19;20062;-58
2024/04/20 04:31:01;;;;;;;4.38;3.22;;;;;;;5.74;100.00;95542.38;7396790;19;20449;-57
2024/04/20 04:33:26;;;;;;;12.23;3.80;;;;;;;5.69;100.00;95542.53;7396830;19;20007;-61
2024/04/20 04:35:59;;;;;;;10.85;3.70;;;;;;;5.87;100.00;95537.59;7396720;19;20006;-56
2024/04/20 04:38:26;;;;;;;7.15;3.78;;;;;;;5.87;100.00;95528.97;7396644;19;19995;-58
2024/04/20 04:40:55;;;;;;;10.30;3.65;;;;;;;5.97;100.00;95530.34;7394869;19;19999;-55
2024/04/20 04:43:21;;;;;;;9.63;3.60;;;;;;;6.05;100.00;95517.13;7396386;19;20005;-63
2024/04/20 04:45:47;;;;;;;8.50;4.15;;;;;;;6.19;100.00;95516.59;7396749;19;20006;-55
2024/04/20 04:48:18;;;;;;;10.23;4.22;;;;;;;6.24;100.00;95516.44;7396434;19;20434;-61
2024/04/20 04:50:45;;;;;;;7.10;3.50;;;;;;;6.13;100.00;95512.47;7396829;19;20363;-61
2024/04/20 04:53:10;;;;;;;7.05;3.40;;;;;;;6.43;100.00;95514.84;7396134;19;20341;-61
2024/04/20 04:55:36;;;;;;;10.45;3.45;;;;;;;6.65;99.61;95507.97;7396136;19;20008;-59
2024/04/20 04:58:02;;;;;;;8.98;3.70;;;;;;;6.88;97.83;95525.25;7396366;19;20015;-60
2024/04/20 05:00:27;;;;;;;10.43;4.20;;;;;;;6.95;100.00;95512.84;7394500;19;20333;-62
2024/04/20 05:02:53;;;;;;;5.00;3.50;;;;;;;7.18;100.00;95511.94;7395828;19;19995;-56
2024/04/20 05:05:19;;;;;;;4.95;3.50;;;;;;;7.41;100.00;95509.28;7394673;19;20100;-57
2024/04/20 05:07:45;;;;;;;3.90;3.50;;;;;;;7.40;98.07;95508.44;7395743;19;20022;-56
2024/04/20 05:10:11;;;;;;;5.63;3.67;;;;;;;7.48;100.00;95502.91;7395592;19;20002;-55
2024/04/20 05:12:36;;;;;;;4.10;3.78;;;;;;;7.50;99.70;95498.50;7395531;19;20464;-56
2024/04/20 05:15:03;;;;;;;4.32;3.60;;;;;;;7.57;98.89;95494.72;7395423;19;19999;-59
2024/04/20 05:17:28;;;;;;;12.18;3.80;;;;;;;7.65;98.60;95499.56;7395823;19;20018;-53
2024/04/20 05:19:54;;;;;;;5.68;3.40;;;;;;;7.93;93.33;95508.81;7392558;19;20357;-60
2024/04/20 05:22:20;;;;;;;4.28;3.67;;;;;;;8.06;96.10;95511.72;7395629;19;20465;-61
2024/04/20 05:24:45;;;;;;;4.10;3.70;;;;;;;8.44;89.34;95521.34;7395346;19;20014;-58
2024/04/20 05:27:11;;;;;;;4.38;3.38;;;;;;;8.58;84.17;95528.53;7395501;19;20020;-61
2024/04/20 05:29:36;;;;;;;5.22;3.42;;;;;;;8.47;83.28;95530.75;7394959;19;20453;-55
2024/04/20 05:32:02;;;;;;;3.92;3.42;;;;;;;8.39;83.77;95525.03;7395039;19;20003;-55
2024/04/20 05:34:28;;;;;;;4.30;3.50;;;;;;;8.61;87.01;95527.53;7394891;19;20386;-54
2024/04/20 05:36:53;;;;;;;5.80;3.50;;;;;;;8.97;80.17;95536.31;7394924;19;20006;-56
2024/04/20 05:39:19;;;;;;;5.97;4.03;;;;;;;9.25;79.53;95541.97;7394603;19;20006;-61
2024/04/20 05:41:45;;;;;;;7.22;4.40;;;;;;;9.18;80.91;95544.88;7394748;19;20407;-57
2024/04/20 05:44:10;;;;;;;8.65;4.30;;;;;;;9.23;83.69;95550.72;7394609;19;20019;-53
2024/04/20 05:46:36;;;;;;;4.75;4.28;;;;;;;9.42;79.01;95562.88;7394650;19;20002;-64
2024/04/20 05:49:02;;;;;;;6.22;4.82;;;;;;;9.41;78.60;95561.19;7394547;19;19995;-60
2024/04/20 05:51:27;;;;;;;12.05;4.68;;;;;;;9.34;80.91;95562.41;7394480;19;19999;-53
2024/04/20 05:53:53;;;;;;;11.65;4.80;;;;;;;9.68;80.57;95567.72;7394431;19;19995;-57
2024/04/20 05:56:19;;;;;;;6.10;4.78;;;;;;;9.92;76.64;95560.41;7394543;19;20003;-57
2024/04/20 05:58:47;;;;;;;4.28;3.78;;;;;;;9.92;75.00;95565.66;7394425;19;20009;-55
2024/04/20 06:01:15;;;;;;;8.48;4.50;;;;;;;10.15;72.19;95563.63;7394215;19;20002;-60
2024/04/20 06:03:40;;;;;;;7.65;5.22;;;;;;;10.48;61.76;95575.03;7394294;19;20003;-57
2024/04/20 06:06:06;;;;;;;6.78;3.58;;;;;;;10.52;61.01;95586.16;7391980;19;20005;-55
2024/04/20 06:08:31;;;;;;;4.15;3.55;;;;;;;11.19;61.55;95586.03;7394157;19;20011;-57
2024/04/20 06:10:58;;;;;;;3.88;3.00;;;;;;;11.04;57.63;95587.72;7394005;19;19999;-53
2024/04/20 06:13:24;;;;;;;4.55;3.45;;;;;;;11.00;60.24;95586.22;7394054;19;20011;-58
2024/04/20 06:15:50;;;;;;;4.00;2.90;;;;;;;11.26;55.16;95604.88;7394303;19;20066;-56
2024/04/20 06:18:16;;;;;;;5.20;3.25;;;;;;;11.55;56.42;95599.75;7393824;19;20445;-62
2024/04/20 06:20:42;;;;;;;6.20;2.80;;;;;;;11.50;58.17;95599.19;7392223;19;20346;-60
2024/04/20 06:23:10;;;;;;;3.40;2.50;;;;;;;11.91;53.20;95597.72;7393825;19;20019;-61
2024/04/20 06:25:37;;;;;;;3.65;2.95;;;;;;;11.56;53.47;95590.97;7393615;19;20346;-61
2024/04/20 06:28:02;;;;;;;3.08;2.42;;;;;;;11.58;53.08;95594.34;7393573;19;20085;-61
2024/04/20 06:30:28;;;;;;;3.03;2.72;;;;;;;11.42;54.93;95599.63;7397167;19;20007;-56
2024/04/20 06:32:56;;;;;;;2.28;2.00;;;;;;;11.65;53.64;95588.75;7400935;19;19999;-56
2024/04/20 06:35:21;;;;;;;4.82;2.30;;;;;;;11.52;52.15;95583.34;7400719;19;20018;-57
2024/04/20 06:37:48;;;;;;;2.33;2.13;;;;;;;11.38;53.81;95591.06;7400692;19;20011;-62
2024/04/20 06:40:15;;;;;;;3.20;2.90;;;;;;;11.19;53.30;95579.94;7398768;19;19999;-56
2024/04/20 06:42:44;;;;;;;2.97;2.70;;;;;;;11.94;52.16;95583.59;7400867;19;20416;-53
2024/04/20 06:45:10;;;;;;;3.50;2.50;;;;;;;11.61;54.32;95565.38;7400533;19;19999;-57
2024/04/20 06:47:35;;;;;;;8.73;3.10;;;;;;;12.06;51.88;95566.28;7400377;19;20350;-54
2024/04/20 06:50:01;;;;;;;2.42;2.22;;;;;;;11.94;51.28;95570.47;7400277;19;20002;-58
2024/04/20 06:52:27;;;;;;;2.50;2.30;;;;;;;11.69;51.13;95564.06;7400312;19;20007;-59
2024/04/20 06:54:53;;;;;;;3.33;2.53;;;;;;;11.42;51.55;95562.97;7400530;19;20007;-61
2024/04/20 06:57:21;;;;;;;4.07;2.45;;;;;;;11.56;53.86;95559.53;7399957;19;20358;-58
2024/04/20 06:59:47;;;;;;;5.85;2.63;;;;;;;11.86;51.44;95560.47;7398571;19;20010;-56
2024/04/20 07:02:13;;;;;;;3.20;2.85;;;;;;;11.53;54.15;95543.16;7400023;19;19995;-59
2024/04/20 07:04:39;;;;;;;7.38;2.60;;;;;;;11.96;54.06;95556.38;7399018;19;20002;-55
2024/04/20 07:07:04;;;;;;;4.65;3.00;;;;;;;11.48;52.38;95557.38;7399768;19;20070;-60
2024/04/20 07:09:30;;;;;;;3.10;2.45;;;;;;;11.32;54.25;95553.94;7399679;19;20015;-59
2024/04/20 07:11:56;;;;;;;4.40;2.80;;;;;;;11.57;53.09;95560.38;7399677;19;20009;-55
2024/04/20 07:14:21;;;;;;;4.05;2.33;;;;;;;11.38;50.18;95559.66;7399476;19;20011;-60
2024/04/20 07:16:47;;;;;;;2.33;2.13;;;;;;;11.40;50.96;95558.72;7399711;19;20426;-56
2024/04/20 07:19:13;;;;;;;2.40;2.20;;;;;;;11.26;52.03;95563.00;7398577;19;20010;-57
2024/04/20 07:21:39;;;;;;;2.30;2.10;;;;;;;11.26;52.77;95573.47;7399305;19;19995;-56
2024/04/20 07:24:07;;;;;;;9.32;2.55;;;;;;;10.81;52.39;95562.84;7399553;19;20038;-55
2024/04/20 07:26:36;;;;;;;2.22;2.00;;;;;;;11.14;52.38;95575.00;7398972;19;20370;-59
2024/04/20 07:29:03;;;;;;;1.73;1.63;;;;;;;11.26;50.86;95583.94;7399109;19;19998;-58
2024/04/20 07:31:29;;;;;;;2.25;1.83;;;;;;;11.32;51.23;95577.50;7399000;19;20354;-59
2024/04/20 07:33:55;;;;;;;2.17;1.88;;;;;;;11.15;50.90;95575.81;7398840;19;19998;-56
2024/04/20 07:36:21;;;;;;;4.97;2.00;;;;;;;11.07;50.71;95578.84;7398618;19;19999;-58
2024/04/20 07:38:46;;;;;;;3.13;1.90;;;;;;;11.55;49.25;95578.81;7398708;19;20006;-54
2024/04/20 07:41:13;;;;;;;2.42;1.60;;;;;;;11.88;49.60;95580.41;7397215;19;19999;-58
2024/04/20 07:43:41;;;;;;;2.22;1.58;;;;;;;11.41;50.08;95586.63;7398298;19;19999;-55
2024/04/20 07:46:07;;;;;;;3.38;1.88;;;;;;;11.05;48.53;95586.78;7398833;19;20351;-55
2024/04/20 07:48:34;;;;;;;2.88;1.88;;;;;;;11.55;48.93;95580.56;7398820;19;19998;-58
2024/04/20 07:51:02;;;;;;;3.92;1.73;;;;;;;11.44;48.47;95584.66;7398620;19;20010;-58
2024/04/20 07:53:29;;;;;;;1.75;1.60;;;;;;;11.50;48.62;95578.25;7398402;19;20007;-61
2024/04/20 07:55:55;;;;;;;2.15;1.77;;;;;;;11.70;46.84;95571.84;7398004;19;20094;-60
2024/04/20 07:58:21;;;;;;;2.95;1.92;;;;;;;11.35;48.80;95572.91;7398321;19;20023;-57
2024/04/20 08:00:47;;;;;;;3.53;1.67;;;;;;;12.01;47.92;95579.66;7395943;19;20031;-59
2024/04/20 08:03:12;;;;;;;7.47;1.92;;;;;;;11.66;47.54;95579.97;7398285;19;20010;-58
2024/04/20 08:05:41;;;;;;;7.88;2.15;;;;;;;11.10;49.68;95570.84;7396206;19;20537;-56
2024/04/20 08:08:07;;;;;;;3.08;2.20;;;;;;;11.36;48.88;95568.53;7397784;19;20010;-61
2024/04/20 08:10:33;;;;;;;7.50;2.10;;;;;;;11.01;50.87;95572.19;7398086;19;20054;-62
2024/04/20 08:12:58;;;;;;;6.90;1.98;;;;;;;11.27;50.53;95569.06;7397520;19;19995;-62
2024/04/20 08:15:24;;;;;;;2.55;1.60;;;;;;;11.68;50.93;95568.44;7397369;19;20399;-62
2024/04/20 08:17:50;;;;;;;2.17;1.92;;;;;;;11.25;50.11;95579.59;7397312;19;20207;-64
2024/04/20 08:20:16;;;;;;;2.05;1.75;;;;;;;11.20;50.86;95573.81;7395957;19;20058;-57
2024/04/20 08:22:43;;;;;;;2.83;1.80;;;;;;;11.12;51.46;95569.84;7397239;19;19995;-62
2024/04/20 08:25:08;;;;;;;2.38;1.77;;;;;;;11.93;51.83;95560.94;7397054;19;20473;-57
2024/04/20 08:27:35;;;;;;;2.13;1.77;;;;;;;11.30;51.45;95574.97;7397213;19;20023;-58
2024/04/20 08:30:04;;;;;;;2.20;1.88;;;;;;;11.53;51.80;95554.47;7396962;19;20006;-58
2024/04/20 08:32:30;;;;;;;3.50;2.55;;;;;;;11.59;51.96;95561.97;7397253;19;20121;-58
2024/04/20 08:34:56;;;;;;;2.15;1.95;;;;;;;11.15;52.19;95573.19;7396783;19;20326;-56
2024/04/20 08:37:21;;;;;;;4.78;1.67;;;;;;;11.18;53.14;95562.56;7396692;19;20010;-56
2024/04/20 08:39:47;;;;;;;3.72;2.10;;;;;;;11.42;51.22;95567.34;7395789;19;20062;-60
2024/04/20 08:42:34;;;;;;;3.08;1.92;;;;;;;11.14;50.42;95568.91;7396505;19;20005;-62
2024/04/20 08:45:03;;;;;;;3.85;2.00;;;;;;;11.68;49.20;95571.06;7396554;19;19998;-57
2024/04/20 08:47:34;;;;;;;2.72;2.30;;;;;;;11.85;49.86;95570.09;7396407;19;20026;-56
2024/04/20 08:50:01;;;;;;;2.03;1.90;;;;;;;11.37;50.51;95570.22;7396694;19;20010;-58
2024/04/20 08:52:27;;;;;;;3.30;2.13;;;;;;;11.99;50.03;95563.22;7396083;19;20477;-60
2024/04/20 08:54:56;;;;;;;7.90;1.92;;;;;;;11.70;49.85;95571.84;7396107;19;20003;-60
2024/04/20 08:57:23;;;;;;;2.33;2.05;;;;;;;11.56;48.73;95571.81;7396143;19;20006;-58
2024/04/20 08:59:50;;;;;;;3.38;2.10;;;;;;;10.86;50.36;95571.25;7395053;19;20006;-58
2024/04/20 09:02:23;;;;;;;2.20;1.95;;;;;;;11.61;50.19;95565.38;7395852;19;20003;-60
2024/04/20 09:04:49;;;;;;;3.78;2.00;;;;;;;10.90;49.47;95562.34;7395122;19;20002;-62
2024/04/20 09:07:15;;;;;;;2.95;2.13;;;;;;;11.19;50.04;95570.34;7395780;19;20050;-56
2024/04/20 09:09:42;;;;;;;2.60;2.40;;;;;;;10.88;50.82;95556.34;7395788;19;20011;-56
2024/04/20 09:12:08;;;;;;;2.72;2.00;;;;;;;11.30;50.81;95558.41;7396115;19;20039;-58
2024/04/20 09:14:33;;;;;;;4.53;2.00;;;;;;;11.34;50.63;95555.53;7395507;19;19999;-63
2024/04/20 09:16:59;;;;;;;2.70;2.10;;;;;;;11.51;48.29;95566.81;7395917;19;19995;-59
2024/04/20 09:19:25;;;;;;;2.97;2.20;;;;;;;12.21;49.93;95562.78;7394792;19;20015;-60
2024/04/20 09:21:50;;;;;;;3.38;2.38;;;;;;;12.45;47.75;95554.38;7395447;19;20066;-54
2024/04/20 09:24:16;;;;;;;2.03;1.83;;;;;;;11.90;48.07;95551.50;7395677;19;20010;-58
2024/04/20 09:26:50;;;;;;;4.10;2.72;;;;;;;12.30;48.20;95557.91;7395469;19;19999;-57
2024/04/20 09:29:15;;;;;;;5.45;2.30;;;;;;;12.44;50.51;95550.06;7395616;19;20006;-57
2024/04/20 09:31:48;;;;;;;3.28;2.60;;;;;;;12.54;47.96;95554.72;7395193;19;20472;-62
2024/04/20 09:34:14;;;;;;;2.83;2.05;;;;;;;12.15;48.29;95547.44;7395372;19;20011;-57
2024/04/20 09:36:40;;;;;;;5.00;2.10;;;;;;;12.28;49.11;95557.19;7395254;19;20419;-61
2024/04/20 09:39:07;;;;;;;7.35;2.20;;;;;;;12.65;49.15;95560.19;7394465;19;20789;-58
2024/04/20 09:41:32;;;;;;;2.35;2.15;;;;;;;12.90;48.45;95545.50;7398589;19;20461;-57
2024/04/20 09:44:03;;;;;;;2.35;2.15;;;;;;;13.09;48.69;95552.19;7397361;19;20059;-56
2024/04/20 09:46:32;;;;;;;3.45;2.03;;;;;;;13.75;46.26;95541.00;7394868;19;20022;-56
2024/04/20 09:49:04;;;;;;;2.42;2.22;;;;;;;12.65;47.25;95541.81;7396607;19;20002;-57
2024/04/20 09:51:43;;;;;;;5.13;2.17;;;;;;;13.00;48.12;95527.38;7397447;19;20003;-62
2024/04/20 09:54:20;;;;;;;2.60;1.95;;;;;;;13.01;47.25;95539.59;7394893;19;20070;-58
2024/04/20 09:56:49;;;;;;;4.45;2.20;;;;;;;13.93;45.74;95532.84;7396079;19;20027;-58
2024/04/20 09:59:19;;;;;;;6.72;2.22;;;;;;;12.32;47.24;95524.59;7393780;19;20050;-59
2024/04/20 10:01:46;;;;;;;4.05;2.50;;;;;;;13.05;45.45;95542.84;7394103;19;20018;-60
2024/04/20 10:04:13;;;;;;;7.75;2.30;;;;;;;13.60;45.30;95540.22;7394273;19;20457;-62
2024/04/20 10:06:40;;;;;;;2.88;2.00;;;;;;;13.29;45.52;95532.56;7398326;19;20007;-59
2024/04/20 10:09:07;;;;;;;2.90;2.55;;;;;;;12.93;45.42;95529.56;7402664;19;20007;-62
2024/04/20 10:11:37;;;;;;;3.20;2.28;;;;;;;12.82;46.67;95519.75;7405359;19;20009;-53
2024/04/20 10:14:04;;;;;;;6.20;2.53;;;;;;;12.58;47.10;95514.28;7401494;19;20009;-57
2024/04/20 10:16:31;;;;;;;8.15;3.03;;;;;;;13.48;45.88;95502.44;7401720;19;20355;-59
2024/04/20 10:18:57;;;;;;;18.33;3.75;;;;;;;13.85;45.80;95501.81;7401323;19;20031;-67
2024/04/20 10:21:23;;;;;;;5.95;2.45;;;;;;;13.99;45.72;95506.09;7401205;19;20343;-61
2024/04/20 10:23:49;;;;;;;4.70;2.40;;;;;;;12.55;46.31;95499.56;7401325;19;19999;-62
2024/04/20 10:26:29;;;;;;;2.30;2.10;;;;;;;13.20;45.25;95493.75;7401451;19;20029;-58
2024/04/20 10:29:09;;;;;;;2.58;1.95;;;;;;;13.26;43.17;95496.84;7401058;19;20003;-60
2024/04/20 10:31:35;;;;;;;5.72;2.33;;;;;;;13.40;43.67;95498.53;7400990;19;20003;-55
2024/04/20 10:34:01;;;;;;;9.25;3.10;;;;;;;13.39;43.77;95496.00;7400885;19;20062;-55
2024/04/20 10:36:27;;;;;;;14.50;4.93;;;;;;;14.22;45.88;95498.44;7400753;19;20010;-57
2024/04/20 10:39:04;;;;;;;2.20;2.00;;;;;;;13.40;44.64;95489.84;7400728;19;20330;-60
2024/04/20 10:41:37;;;;;;;7.93;2.45;;;;;;;14.19;43.91;95490.75;7405028;19;20023;-61
2024/04/20 10:44:26;;;;;;;4.78;2.40;;;;;;;12.84;43.79;95501.28;7400601;19;20015;-60
2024/04/20 10:46:55;;;;;;;2.33;2.13;;;;;;;13.43;43.28;95507.16;7400650;19;20011;-66
2024/04/20 10:49:21;;;;;;;7.95;3.30;;;;;;;14.18;44.69;95495.16;7400391;19;20465;-61
2024/04/20 10:51:55;;;;;;;5.68;2.50;;;;;;;13.92;43.00;95510.09;7400207;19;20003;-58
2024/04/20 10:54:21;;;;;;;3.55;2.78;;;;;;;13.86;42.34;95511.38;7400413;19;19999;-65
2024/04/20 10:56:49;;;;;;;3.03;2.10;;;;;;;13.23;43.23;95504.91;7400085;19;20003;-59
2024/04/20 10:59:15;;;;;;;2.85;1.73;;;;;;;13.32;44.70;95507.88;7399732;19;20014;-59
2024/04/20 11:01:45;;;;;;;4.40;2.97;;;;;;;13.72;43.36;95494.75;7399997;19;20516;-62
2024/04/20 11:04:11;;;;;;;3.80;1.75;;;;;;;12.71;45.63;95485.50;7399953;19;20002;-58
2024/04/20 11:06:36;;;;;;;3.40;2.08;;;;;;;13.56;45.28;95504.59;7397600;19;19999;-62
2024/04/20 11:09:02;;;;;;;2.03;1.80;;;;;;;12.57;45.54;95491.59;7399719;19;19998;-59
2024/04/20 11:11:29;;;;;;;4.93;1.92;;;;;;;12.82;46.50;95509.25;7403310;19;20011;-58
2024/04/20 11:14:01;;;;;;;4.90;2.05;;;;;;;13.26;46.22;95507.34;7403945;19;20013;-61
2024/04/20 11:16:30;;;;;;;2.25;2.03;;;;;;;13.60;44.79;95504.28;7396790;19;20019;-59
2024/04/20 11:18:56;;;;;;;3.55;2.00;;;;;;;14.01;45.74;95502.44;7399179;19;20066;-61
2024/04/20 11:21:22;;;;;;;2.10;1.90;;;;;;;13.43;46.08;95504.53;7399615;19;20006;-60
2024/04/20 11:23:48;;;;;;;2.10;1.90;;;;;;;12.76;46.06;95509.63;7399250;19;19999;-64
2024/04/20 11:26:16;;;;;;;2.13;1.60;;;;;;;13.30;46.37;95510.59;7399584;19;20021;-64
2024/04/20 11:28:42;;;;;;;2.00;1.80;;;;;;;13.79;45.10;95500.44;7399487;19;20014;-55
2024/04/20 11:31:11;;;;;;;2.03;1.75;;;;;;;13.08;47.27;95505.91;7399096;19;20003;-56